createdAt,value
2022-11-28T00:01:18.715Z,16.73
2022-11-28T00:03:45.162Z,17.52
2022-11-28T00:06:11.936Z,17.97
2022-11-28T00:08:38.513Z,18.05
2022-11-28T00:11:07.911Z,19.33
2022-11-28T00:13:34.849Z,18.50
2022-11-28T00:16:03.617Z,17.20
2022-11-28T00:18:31.037Z,17.97
2022-11-28T00:21:07.136Z,16.75
2022-11-28T00:23:33.764Z,16.67
2022-11-28T00:26:09.919Z,15.77
2022-11-28T00:28:37.352Z,17.83
2022-11-28T00:31:04.237Z,16.80
2022-11-28T00:33:31.740Z,16.73
2022-11-28T00:36:02.686Z,16.17
2022-11-28T00:38:29.944Z,16.50
2022-11-28T00:41:11.045Z,15.80
2022-11-28T00:43:37.795Z,14.57
2022-11-28T00:46:04.562Z,16.13
2022-11-28T00:48:32.796Z,16.42
2022-11-28T00:51:09.424Z,17.17
2022-11-28T00:53:37.014Z,18.38
2022-11-28T00:56:07.633Z,16.60
2022-11-28T00:58:35.412Z,16.35
2022-11-28T01:01:18.822Z,16.65
2022-11-28T01:03:46.377Z,17.30
2022-11-28T01:06:13.159Z,15.80
2022-11-28T01:08:39.586Z,15.83
2022-11-28T01:11:12.146Z,15.65
2022-11-28T01:13:39.325Z,13.63
2022-11-28T01:16:06.134Z,14.73
2022-11-28T01:18:32.655Z,14.23
2022-11-28T01:20:59.078Z,14.10
2022-11-28T01:23:25.551Z,15.05
2022-11-28T01:25:52.096Z,15.45
2022-11-28T01:28:18.557Z,15.63
2022-11-28T01:30:45.106Z,14.15
2022-11-28T01:33:11.570Z,13.53
2022-11-28T01:35:38.010Z,13.43
2022-11-28T01:38:04.388Z,13.68
2022-11-28T01:40:30.842Z,12.18
2022-11-28T01:42:57.333Z,13.05
2022-11-28T01:45:33.602Z,12.27
2022-11-28T01:48:02.893Z,12.00
2022-11-28T01:50:32.924Z,12.00
2022-11-28T01:53:03.492Z,11.25
2022-11-28T01:55:33.759Z,11.13
2022-11-28T01:58:00.373Z,11.27
2022-11-28T02:00:28.208Z,10.70
2022-11-28T02:03:05.830Z,10.23
2022-11-28T02:05:33.042Z,10.25
2022-11-28T02:07:59.664Z,10.50
2022-11-28T02:10:43.908Z,10.47
2022-11-28T02:13:22.435Z,10.55
2022-11-28T02:16:09.552Z,10.73
2022-11-28T02:18:50.182Z,9.27
2022-11-28T02:21:32.284Z,10.10
2022-11-28T02:24:16.992Z,9.43
2022-11-28T02:26:56.802Z,8.65
2022-11-28T02:29:23.162Z,9.00
2022-11-28T02:32:31.371Z,9.88
2022-11-28T02:35:30.041Z,10.27
2022-11-28T02:38:16.699Z,11.17
2022-11-28T02:41:19.380Z,10.82
2022-11-28T02:44:01.483Z,11.63
2022-11-28T02:46:40.931Z,11.32
2022-11-28T02:49:29.838Z,11.57
2022-11-28T02:52:03.288Z,10.43
2022-11-28T02:54:30.111Z,11.20
2022-11-28T02:56:56.649Z,11.88
2022-11-28T02:59:33.429Z,10.95
2022-11-28T03:02:01.308Z,10.95
2022-11-28T03:04:36.834Z,10.93
2022-11-28T03:07:22.135Z,11.10
2022-11-28T03:10:13.451Z,11.38
2022-11-28T03:13:06.316Z,10.85
2022-11-28T03:15:49.630Z,11.02
2022-11-28T03:18:24.582Z,10.77
2022-11-28T03:21:01.464Z,11.05
2022-11-28T03:23:42.705Z,11.13
2022-11-28T03:26:21.208Z,11.27
2022-11-28T03:29:12.362Z,11.07
2022-11-28T03:31:54.703Z,11.50
2022-11-28T03:34:24.730Z,11.15
2022-11-28T03:36:56.862Z,11.65
2022-11-28T03:39:28.857Z,11.60
2022-11-28T03:42:02.952Z,11.90
2022-11-28T03:44:35.618Z,12.20
2022-11-28T03:47:05.138Z,12.70
2022-11-28T03:49:39.131Z,12.23
2022-11-28T03:52:08.121Z,13.25
2022-11-28T03:54:40.711Z,14.75
2022-11-28T03:57:38.241Z,14.50
2022-11-28T04:00:08.046Z,15.52
2022-11-28T04:02:41.268Z,15.27
2022-11-28T04:05:27.672Z,16.02
2022-11-28T04:08:02.098Z,15.88
2022-11-28T04:10:45.528Z,15.40
2022-11-28T04:13:26.414Z,16.95
2022-11-28T04:16:05.091Z,16.25
2022-11-28T04:18:50.063Z,16.52
2022-11-28T04:21:22.632Z,16.20
2022-11-28T04:23:51.002Z,17.00
2022-11-28T04:26:22.621Z,18.15
2022-11-28T04:28:52.333Z,18.33
2022-11-28T04:31:21.176Z,18.20
2022-11-28T04:33:53.363Z,18.10
2022-11-28T04:36:22.609Z,18.60
2022-11-28T04:38:50.983Z,18.27
2022-11-28T04:41:22.465Z,19.27
2022-11-28T04:43:55.522Z,20.05
2022-11-28T04:46:26.812Z,18.67
2022-11-28T04:48:53.520Z,19.60
2022-11-28T04:51:38.122Z,18.50
2022-11-28T04:54:16.908Z,20.40
2022-11-28T04:56:55.973Z,20.38
2022-11-28T04:59:26.150Z,20.67
2022-11-28T05:01:52.689Z,21.60
2022-11-28T05:04:19.248Z,20.77
2022-11-28T05:06:45.742Z,19.80
2022-11-28T05:09:12.960Z,21.00
2022-11-28T05:11:39.660Z,22.02
2022-11-28T05:14:06.648Z,20.87
2022-11-28T05:16:33.322Z,19.67
2022-11-28T05:18:59.842Z,20.33
2022-11-28T05:21:26.284Z,20.90
2022-11-28T05:23:52.829Z,21.15
2022-11-28T05:26:21.213Z,21.10
2022-11-28T05:28:50.453Z,22.33
2022-11-28T05:31:18.823Z,22.73
2022-11-28T05:33:45.553Z,24.00
2022-11-28T05:36:13.851Z,23.50
2022-11-28T05:38:40.997Z,24.40
2022-11-28T05:41:07.640Z,23.33
2022-11-28T05:43:34.728Z,23.83
2022-11-28T05:46:01.261Z,25.38
2022-11-28T05:48:27.838Z,24.02
2022-11-28T05:50:54.404Z,23.80
2022-11-28T05:53:20.978Z,23.15
2022-11-28T05:55:47.600Z,23.30
2022-11-28T05:58:14.119Z,23.42
2022-11-28T06:00:40.691Z,22.75
2022-11-28T06:03:07.152Z,24.50
2022-11-28T06:05:43.193Z,23.88
2022-11-28T06:08:13.611Z,24.48
2022-11-28T06:10:40.744Z,24.23
2022-11-28T06:13:07.642Z,23.67
2022-11-28T06:15:37.955Z,24.63
2022-11-28T06:18:04.959Z,24.63
2022-11-28T06:20:31.420Z,23.45
2022-11-28T06:22:57.836Z,24.85
2022-11-28T06:25:24.500Z,23.08
2022-11-28T06:27:50.937Z,24.83
2022-11-28T06:30:17.521Z,23.70
2022-11-28T06:32:43.971Z,23.70
2022-11-28T06:35:10.450Z,24.10
2022-11-28T06:37:36.888Z,22.67
2022-11-28T06:40:06.135Z,23.37
2022-11-28T06:42:35.196Z,22.63
2022-11-28T06:45:02.628Z,22.88
2022-11-28T06:47:29.041Z,21.40
2022-11-28T06:49:55.904Z,22.17
2022-11-28T06:52:22.472Z,20.97
2022-11-28T06:54:48.881Z,21.35
2022-11-28T06:57:16.232Z,22.08
2022-11-28T06:59:42.972Z,22.88
2022-11-28T07:02:11.670Z,23.60
2022-11-28T07:04:38.365Z,23.07
2022-11-28T07:07:05.016Z,23.23
2022-11-28T07:09:31.554Z,23.45
2022-11-28T07:11:58.080Z,24.15
2022-11-28T07:14:24.584Z,24.75
2022-11-28T07:16:51.155Z,25.50
2022-11-28T07:19:17.720Z,25.75
2022-11-28T07:21:44.203Z,27.00
2022-11-28T07:24:10.645Z,24.80
2022-11-28T07:26:37.111Z,24.98
2022-11-28T07:29:03.802Z,26.93
2022-11-28T07:31:30.274Z,27.20
2022-11-28T07:33:56.774Z,26.08
2022-11-28T07:36:25.761Z,27.42
2022-11-28T07:38:55.191Z,26.98
2022-11-28T07:41:26.484Z,27.13
2022-11-28T07:43:56.151Z,27.85
2022-11-28T07:46:23.967Z,27.88
2022-11-28T07:48:50.618Z,27.48
2022-11-28T07:51:26.538Z,29.13
2022-11-28T07:53:53.145Z,27.87
2022-11-28T07:56:22.507Z,27.73
2022-11-28T07:58:49.617Z,28.70
2022-11-28T08:01:30.561Z,26.25
2022-11-28T08:03:57.891Z,24.30
2022-11-28T08:06:27.503Z,26.20
2022-11-28T08:08:55.372Z,26.27
2022-11-28T08:11:24.085Z,25.40
2022-11-28T08:13:52.824Z,25.05
2022-11-28T08:16:23.490Z,24.38
2022-11-28T08:18:51.653Z,26.47
2022-11-28T08:21:24.189Z,28.35
2022-11-28T08:23:51.601Z,28.08
2022-11-28T08:26:20.112Z,26.55
2022-11-28T08:28:46.961Z,28.33
2022-11-28T08:31:13.494Z,27.57
2022-11-28T08:33:40.628Z,25.45
2022-11-28T08:36:09.726Z,26.95
2022-11-28T08:38:37.172Z,26.58
2022-11-28T08:41:05.764Z,26.25
2022-11-28T08:43:33.897Z,28.10
2022-11-28T08:46:00.660Z,26.83
2022-11-28T08:48:27.193Z,26.67
2022-11-28T08:50:53.784Z,24.50
2022-11-28T08:53:20.335Z,27.00
2022-11-28T08:55:46.839Z,25.43
2022-11-28T08:58:13.958Z,28.02
2022-11-28T09:00:41.836Z,27.15
2022-11-28T09:03:13.276Z,26.92
2022-11-28T09:05:39.787Z,26.45
2022-11-28T09:08:10.274Z,28.03
2022-11-28T09:10:39.928Z,27.23
2022-11-28T09:13:07.246Z,28.10
2022-11-28T09:15:33.995Z,27.60
2022-11-28T09:18:01.364Z,27.10
2022-11-28T09:20:27.780Z,27.87
2022-11-28T09:22:54.286Z,24.50
2022-11-28T09:25:20.752Z,27.60
2022-11-28T09:27:47.275Z,27.95
2022-11-28T09:30:14.184Z,26.77
2022-11-28T09:32:40.775Z,25.80
2022-11-28T09:35:07.544Z,26.85
2022-11-28T09:37:34.010Z,27.52
2022-11-28T09:40:14.394Z,25.73
2022-11-28T09:42:42.560Z,26.13
2022-11-28T09:45:19.156Z,26.83
2022-11-28T09:47:49.995Z,25.40
2022-11-28T09:50:21.237Z,25.83
2022-11-28T09:53:03.651Z,26.42
2022-11-28T09:56:11.035Z,25.80
2022-11-28T09:58:50.271Z,24.07
2022-11-28T10:01:38.252Z,24.75
2022-11-28T10:04:22.791Z,24.88
2022-11-28T10:07:27.594Z,24.90
2022-11-28T10:10:14.705Z,24.45
2022-11-28T10:12:41.156Z,23.87
2022-11-28T10:15:10.718Z,25.45
2022-11-28T10:17:49.665Z,26.67
2022-11-28T10:20:22.610Z,26.65
2022-11-28T10:23:02.676Z,27.02
2022-11-28T10:25:39.330Z,25.73
2022-11-28T10:28:07.810Z,25.27
2022-11-28T10:30:41.199Z,26.80
2022-11-28T10:33:13.804Z,26.75
2022-11-28T10:35:48.562Z,26.27
2022-11-28T10:38:17.177Z,27.17
2022-11-28T10:40:55.880Z,26.33
2022-11-28T10:43:36.473Z,26.88
2022-11-28T10:46:17.590Z,26.90
2022-11-28T10:49:09.094Z,26.10
2022-11-28T10:51:58.451Z,25.47
2022-11-28T10:54:40.147Z,25.65
2022-11-28T10:57:19.515Z,25.98
2022-11-28T11:00:11.783Z,24.77
2022-11-28T11:02:45.573Z,24.02
2022-11-28T11:05:16.563Z,23.83
2022-11-28T11:07:58.716Z,23.45
2022-11-28T11:10:40.752Z,25.30
2022-11-28T11:13:29.151Z,25.15
2022-11-28T11:16:09.715Z,24.90
2022-11-28T11:18:50.504Z,23.33
2022-11-28T11:21:25.845Z,24.45
2022-11-28T11:24:31.065Z,23.88
2022-11-28T11:27:30.060Z,23.42
2022-11-28T11:29:56.568Z,21.58
2022-11-28T11:32:30.508Z,21.83
2022-11-28T11:34:59.089Z,21.83
2022-11-28T11:37:31.453Z,20.38
2022-11-28T11:39:59.341Z,20.65
2022-11-28T11:42:30.577Z,21.67
2022-11-28T11:44:57.985Z,19.57
2022-11-28T11:47:41.203Z,17.40
2022-11-28T11:50:16.927Z,18.67
2022-11-28T11:52:43.480Z,17.20
2022-11-28T11:55:16.652Z,16.58
2022-11-28T11:57:55.101Z,16.43
2022-11-28T12:00:26.807Z,17.67
2022-11-28T12:03:04.651Z,16.42
2022-11-28T12:06:12.791Z,15.48
2022-11-28T12:08:39.315Z,13.88
2022-11-28T12:11:29.384Z,14.20
2022-11-28T12:14:03.429Z,14.57
2022-11-28T12:16:42.469Z,16.15
2022-11-28T12:19:36.517Z,14.77
2022-11-28T12:22:08.809Z,15.90
2022-11-28T12:25:10.630Z,14.10
2022-11-28T12:28:14.441Z,14.77
2022-11-28T12:31:18.353Z,15.10
2022-11-28T12:33:55.655Z,13.32
2022-11-28T12:36:54.569Z,12.70
2022-11-28T12:39:30.067Z,12.20
2022-11-28T12:41:59.244Z,12.15
2022-11-28T12:44:55.078Z,12.27
2022-11-28T12:47:42.890Z,12.25
2022-11-28T12:50:20.902Z,12.00
2022-11-28T12:53:07.714Z,12.83
2022-11-28T12:55:52.521Z,11.77
2022-11-28T12:58:22.703Z,11.63
2022-11-28T13:01:02.514Z,12.55
2022-11-28T13:03:36.014Z,11.90
2022-11-28T13:06:37.623Z,11.23
2022-11-28T13:09:16.393Z,11.73
2022-11-28T13:12:17.954Z,12.10
2022-11-28T13:15:03.231Z,11.50
2022-11-28T13:18:02.534Z,11.77
2022-11-28T13:20:39.118Z,11.57
2022-11-28T13:23:24.609Z,11.13
2022-11-28T13:26:05.394Z,11.77
2022-11-28T13:28:56.424Z,12.55
2022-11-28T13:31:40.606Z,11.48
2022-11-28T13:34:14.701Z,11.40
2022-11-28T13:39:54.716Z,12.40
2022-11-28T13:43:03.883Z,13.40
2022-11-28T13:45:39.186Z,14.40
2022-11-28T13:48:57.656Z,16.30
2022-11-28T13:51:30.550Z,16.23
2022-11-28T13:54:17.134Z,15.80
2022-11-28T13:56:45.977Z,15.82
2022-11-28T13:59:20.040Z,16.08
2022-11-28T14:01:52.865Z,16.17
2022-11-28T14:04:19.675Z,16.80
2022-11-28T14:06:52.194Z,17.63
2022-11-28T14:09:49.077Z,18.58
2022-11-28T14:12:32.776Z,19.40
2022-11-28T14:15:16.984Z,18.10
2022-11-28T14:17:53.524Z,19.10
2022-11-28T14:20:35.048Z,19.27
2022-11-28T14:23:26.539Z,21.05
2022-11-28T14:25:54.508Z,21.00
2022-11-28T14:28:28.488Z,25.03
2022-11-28T14:31:10.196Z,23.17
2022-11-28T14:33:40.914Z,21.48
2022-11-28T14:36:22.355Z,24.95
2022-11-28T14:39:31.981Z,23.30
2022-11-28T14:42:04.249Z,22.97
2022-11-28T14:44:55.371Z,30.67
2022-11-28T14:47:21.853Z,24.00
2022-11-28T14:49:49.237Z,25.40
2022-11-28T14:52:39.549Z,24.90
2022-11-28T14:55:12.729Z,24.37
2022-11-28T14:57:55.998Z,33.22
2022-11-28T15:00:28.379Z,25.38
2022-11-28T15:03:13.402Z,23.10
2022-11-28T15:05:46.356Z,23.83
2022-11-28T15:08:18.742Z,25.40
2022-11-28T15:10:58.078Z,30.10
2022-11-28T15:13:39.616Z,30.05
2022-11-28T15:16:10.550Z,30.58
2022-11-28T15:18:39.380Z,31.65
2022-11-28T15:21:11.321Z,26.20
2022-11-28T15:23:38.295Z,24.67
2022-11-28T15:26:05.849Z,29.65
2022-11-28T15:28:33.215Z,27.08
2022-11-28T15:31:02.552Z,28.02
2022-11-28T15:33:30.077Z,29.50
2022-11-28T15:36:00.817Z,26.23
2022-11-28T15:38:30.163Z,26.88
2022-11-28T15:40:58.964Z,28.13
2022-11-28T15:43:25.787Z,26.90
2022-11-28T15:46:20.126Z,27.30
2022-11-28T15:48:52.838Z,28.33
2022-11-28T15:51:27.084Z,26.63
2022-11-28T15:53:53.817Z,28.45
2022-11-28T15:56:20.295Z,27.92
2022-11-28T15:58:47.256Z,29.87
2022-11-28T16:01:24.924Z,30.20
2022-11-28T16:04:14.834Z,30.73
2022-11-28T16:06:44.069Z,33.85
2022-11-28T16:09:10.551Z,35.72
2022-11-28T16:11:37.154Z,36.90
2022-11-28T16:14:09.406Z,35.60
2022-11-28T16:16:38.898Z,33.75
2022-11-28T16:19:26.425Z,41.38
2022-11-28T16:21:56.956Z,34.78
2022-11-28T16:24:43.157Z,36.20
2022-11-28T16:27:25.082Z,36.08
2022-11-28T16:29:51.616Z,37.50
2022-11-28T16:32:39.627Z,34.90
2022-11-28T16:35:11.729Z,37.28
2022-11-28T16:37:38.603Z,36.83
2022-11-28T16:40:23.492Z,34.00
2022-11-28T16:42:54.023Z,31.85
2022-11-28T16:45:33.016Z,31.88
2022-11-28T16:48:02.445Z,31.77
2022-11-28T16:50:28.998Z,29.60
2022-11-28T16:52:58.883Z,32.22
2022-11-28T16:55:31.588Z,32.03
2022-11-28T16:58:07.288Z,30.30
2022-11-28T17:00:34.737Z,30.48
2022-11-28T17:03:01.609Z,29.57
2022-11-28T17:05:28.083Z,29.73
2022-11-28T17:07:54.761Z,27.65
2022-11-28T17:10:21.386Z,28.35
2022-11-28T17:12:47.897Z,30.70
2022-11-28T17:15:16.657Z,27.47
2022-11-28T17:17:43.389Z,25.98
2022-11-28T17:20:12.462Z,26.85
2022-11-28T17:22:43.965Z,28.50
2022-11-28T17:25:19.361Z,26.73
2022-11-28T17:27:47.026Z,26.60
2022-11-28T17:30:18.724Z,26.23
2022-11-28T17:32:45.622Z,26.27
2022-11-28T17:35:20.950Z,25.23
2022-11-28T17:37:47.465Z,25.42
2022-11-28T17:40:13.981Z,25.30
2022-11-28T17:42:40.476Z,26.15
2022-11-28T17:45:14.333Z,25.73
2022-11-28T17:47:40.878Z,24.75
2022-11-28T17:50:07.928Z,23.00
2022-11-28T17:52:34.453Z,22.70
2022-11-28T17:55:06.289Z,23.83
2022-11-28T17:57:34.098Z,33.03
2022-11-28T18:00:00.740Z,33.97
2022-11-28T18:02:27.632Z,37.70
2022-11-28T18:04:54.162Z,30.33
2022-11-28T18:07:20.654Z,28.40
2022-11-28T18:09:47.141Z,28.17
2022-11-28T18:12:14.004Z,23.65
2022-11-28T18:14:40.623Z,23.42
2022-11-28T18:17:07.117Z,22.47
2022-11-28T18:19:33.636Z,20.55
2022-11-28T18:22:00.092Z,22.02
2022-11-28T18:24:26.534Z,23.35
2022-11-28T18:26:53.037Z,24.20
2022-11-28T18:29:19.608Z,24.03
2022-11-28T18:31:46.058Z,23.80
2022-11-28T18:34:12.579Z,28.20
2022-11-28T18:36:40.132Z,28.27
2022-11-28T18:39:11.285Z,36.20
2022-11-28T18:41:38.032Z,25.13
2022-11-28T18:44:05.609Z,25.40
2022-11-28T18:46:33.471Z,25.50
2022-11-28T18:49:00.029Z,24.33
2022-11-28T18:51:29.077Z,24.67
2022-11-28T18:53:56.579Z,26.40
2022-11-28T18:56:23.999Z,23.75
2022-11-28T18:58:52.805Z,27.23
2022-11-28T19:01:22.653Z,27.17
2022-11-28T19:03:51.547Z,27.15
2022-11-28T19:06:18.385Z,27.57
2022-11-28T19:08:44.892Z,28.35
2022-11-28T19:11:13.910Z,28.55
2022-11-28T19:13:43.455Z,28.00
2022-11-28T19:16:19.112Z,28.88
2022-11-28T19:18:45.930Z,31.60
2022-11-28T19:21:18.258Z,32.78
2022-11-28T19:23:44.896Z,34.85
2022-11-28T19:26:13.687Z,35.22
2022-11-28T19:28:41.253Z,32.53
2022-11-28T19:31:10.890Z,31.27
2022-11-28T19:33:37.535Z,33.65
2022-11-28T19:36:06.137Z,38.72
2022-11-28T19:38:37.357Z,35.72
2022-11-28T19:41:15.465Z,35.15
2022-11-28T19:43:42.417Z,31.30
2022-11-28T19:46:09.667Z,32.40
2022-11-28T19:48:37.982Z,31.52
2022-11-28T19:51:05.101Z,34.55
2022-11-28T19:53:33.525Z,33.95
2022-11-28T19:56:04.995Z,39.60
2022-11-28T19:58:31.511Z,40.90
2022-11-28T20:01:15.410Z,30.95
2022-11-28T20:03:43.007Z,31.17
2022-11-28T20:06:11.690Z,31.55
2022-11-28T20:08:38.949Z,29.20
2022-11-28T20:11:10.379Z,29.80
2022-11-28T20:13:36.919Z,33.30
2022-11-28T20:16:05.522Z,33.47
2022-11-28T20:18:32.970Z,35.15
2022-11-28T20:21:25.514Z,46.30
2022-11-28T20:23:54.541Z,51.90
2022-11-28T20:26:23.519Z,49.88
2022-11-28T20:28:49.986Z,45.30
2022-11-28T20:31:32.171Z,42.88
2022-11-28T20:33:58.655Z,35.57
2022-11-28T20:36:27.133Z,28.38
2022-11-28T20:38:54.862Z,32.35
2022-11-28T20:41:23.321Z,30.85
2022-11-28T20:43:50.626Z,34.38
2022-11-28T20:46:31.808Z,34.60
2022-11-28T20:49:01.258Z,36.33
2022-11-28T20:51:30.140Z,38.95
2022-11-28T20:53:57.865Z,33.80
2022-11-28T20:56:27.092Z,32.80
2022-11-28T20:58:53.567Z,35.07
2022-11-28T21:01:23.111Z,42.00
2022-11-28T21:03:50.793Z,34.05
2022-11-28T21:06:18.129Z,33.00
2022-11-28T21:08:44.791Z,32.45
2022-11-28T21:11:30.633Z,35.03
2022-11-28T21:14:01.690Z,37.78
2022-11-28T21:16:30.373Z,38.25
2022-11-28T21:18:58.818Z,32.85
2022-11-28T21:21:27.595Z,33.28
2022-11-28T21:23:59.177Z,30.60
2022-11-28T21:26:41.708Z,30.48
2022-11-28T21:29:21.278Z,32.40
2022-11-28T21:31:53.682Z,29.85
2022-11-28T21:34:20.359Z,30.08
2022-11-28T21:36:47.348Z,27.97
2022-11-28T21:39:19.078Z,27.63
2022-11-28T21:41:45.893Z,28.20
2022-11-28T21:44:12.401Z,29.98
2022-11-28T21:46:38.853Z,32.10
2022-11-28T21:49:05.301Z,31.13
2022-11-28T21:51:31.724Z,36.38
2022-11-28T21:53:58.182Z,35.08
2022-11-28T21:56:25.725Z,35.35
2022-11-28T21:58:52.365Z,35.10
2022-11-28T22:01:19.307Z,33.43
2022-11-28T22:03:45.825Z,31.02
2022-11-28T22:06:23.643Z,34.40
2022-11-28T22:08:50.951Z,33.63
2022-11-28T22:11:18.597Z,36.10
2022-11-28T22:13:46.055Z,34.50
2022-11-28T22:16:15.649Z,32.92
2022-11-28T22:18:42.391Z,33.33
2022-11-28T22:21:49.443Z,32.75
2022-11-28T22:23:56.395Z,30.65
2022-11-28T22:26:22.921Z,27.87
2022-11-28T22:28:53.518Z,29.83
2022-11-28T22:31:20.972Z,28.60
2022-11-28T22:33:49.559Z,27.98
2022-11-28T22:36:18.717Z,26.30
2022-11-28T22:38:46.252Z,26.07
2022-11-28T22:41:23.359Z,26.02
2022-11-28T22:43:55.476Z,28.80
2022-11-28T22:46:22.344Z,27.15
2022-11-28T22:48:49.235Z,26.92
2022-11-28T22:51:21.517Z,26.40
2022-11-28T22:53:51.826Z,24.20
2022-11-28T22:56:18.237Z,27.60
2022-11-28T22:58:45.571Z,26.65
2022-11-28T23:01:27.331Z,23.90
2022-11-28T23:03:54.960Z,27.33
2022-11-28T23:06:27.620Z,26.33
2022-11-28T23:08:55.595Z,28.52
2022-11-28T23:11:25.682Z,25.10
2022-11-28T23:13:52.532Z,25.42
2022-11-28T23:16:21.818Z,27.03
2022-11-28T23:18:50.715Z,26.83
2022-11-28T23:21:18.377Z,26.17
2022-11-28T23:23:45.137Z,25.88
2022-11-28T23:26:23.768Z,23.55
2022-11-28T23:28:51.193Z,26.13
2022-11-28T23:31:23.282Z,26.20
2022-11-28T23:33:50.240Z,27.42
2022-11-28T23:36:28.536Z,29.67
2022-11-28T23:39:00.507Z,27.88
2022-11-28T23:41:29.330Z,28.37
2022-11-28T23:43:56.132Z,29.67
2022-11-28T23:46:23.718Z,28.83
2022-11-28T23:48:50.683Z,29.13
2022-11-28T23:51:19.209Z,33.40
2022-11-28T23:53:45.815Z,30.27
2022-11-28T23:56:33.789Z,28.63
2022-11-28T23:59:02.502Z,29.98
